createdAt,value
2022-08-18T00:02:14.537Z,98477.36
2022-08-18T00:05:31.552Z,98489.58
2022-08-18T00:08:48.193Z,98496.03
2022-08-18T00:12:04.865Z,98490.29
2022-08-18T00:15:24.861Z,98493.43
2022-08-18T00:18:40.962Z,98498.20
2022-08-18T00:21:57.195Z,98500.03
2022-08-18T00:25:18.352Z,98494.96
2022-08-18T00:28:34.956Z,98495.45
2022-08-18T00:31:51.226Z,98499.67
2022-08-18T00:35:19.266Z,98493.41
2022-08-18T00:38:35.718Z,98491.09
2022-08-18T00:41:52.099Z,98499.67
2022-08-18T00:45:11.704Z,98508.81
2022-08-18T00:48:28.536Z,98509.86
2022-08-18T00:51:51.444Z,98506.31
2022-08-18T00:55:09.418Z,98490.66
2022-08-18T00:58:30.883Z,98496.67
2022-08-18T01:01:49.274Z,98491.03
2022-08-18T01:05:09.956Z,98486.39
2022-08-18T01:08:29.201Z,98486.33
2022-08-18T01:11:46.464Z,98477.71
2022-08-18T01:15:04.124Z,98485.12
2022-08-18T01:18:36.409Z,98490.50
2022-08-18T01:21:57.185Z,98492.61
2022-08-18T01:25:29.438Z,98484.55
2022-08-18T01:28:50.284Z,98474.19
2022-08-18T01:32:06.719Z,98466.86
2022-08-18T01:35:26.362Z,98467.34
2022-08-18T01:38:43.817Z,98468.14
2022-08-18T01:42:00.252Z,98472.15
2022-08-18T01:45:19.578Z,98470.77
2022-08-18T01:48:37.804Z,98464.53
2022-08-18T01:51:55.704Z,98465.52
2022-08-18T01:55:14.752Z,98462.84
2022-08-18T01:58:33.638Z,98460.41
2022-08-18T02:01:54.913Z,98459.83
2022-08-18T02:05:16.805Z,98462.20
2022-08-18T02:08:33.437Z,98466.07
2022-08-18T02:11:49.674Z,98469.53
2022-08-18T02:15:08.711Z,98471.06
2022-08-18T02:18:47.638Z,98464.56
2022-08-18T02:21:46.768Z,98463.38
2022-08-18T02:25:04.388Z,98456.69
2022-08-18T02:28:25.256Z,98452.63
2022-08-18T02:31:41.230Z,98458.98
2022-08-18T02:34:57.419Z,98454.98
2022-08-18T02:38:15.728Z,98464.05
2022-08-18T02:41:34.669Z,98456.45
2022-08-18T02:44:53.335Z,98455.79
2022-08-18T02:48:09.850Z,98450.48
2022-08-18T02:51:28.366Z,98447.79
2022-08-18T02:54:44.702Z,98445.87
2022-08-18T02:58:02.654Z,98456.23
2022-08-18T03:01:18.958Z,98456.38
2022-08-18T03:04:38.940Z,98456.38
2022-08-18T03:07:56.275Z,98445.16
2022-08-18T03:11:12.660Z,98453.83
2022-08-18T03:14:28.940Z,98451.86
2022-08-18T03:17:46.878Z,98455.92
2022-08-18T03:21:03.963Z,98458.06
2022-08-18T03:24:24.249Z,98470.13
2022-08-18T03:27:41.800Z,98475.73
2022-08-18T03:30:57.990Z,98484.88
2022-08-18T03:34:17.006Z,98485.44
2022-08-18T03:37:31.052Z,98485.30
2022-08-18T03:40:48.277Z,98491.66
2022-08-18T03:44:04.752Z,98491.47
2022-08-18T03:47:22.576Z,98500.37
2022-08-18T03:50:40.593Z,98497.75
2022-08-18T03:53:58.418Z,98499.70
2022-08-18T04:00:50.671Z,98519.52
2022-08-18T04:04:12.227Z,98513.08
2022-08-18T04:07:28.413Z,98517.16
2022-08-18T04:10:44.932Z,98517.05
2022-08-18T04:14:02.540Z,98527.58
2022-08-18T04:17:22.476Z,98520.97
2022-08-18T04:20:59.344Z,98530.41
2022-08-18T04:24:00.794Z,98536.30
2022-08-18T04:27:16.902Z,98537.10
2022-08-18T04:30:33.316Z,98536.77
2022-08-18T04:33:50.262Z,98532.15
2022-08-18T04:37:07.564Z,98539.45
2022-08-18T04:40:25.341Z,98545.09
2022-08-18T04:43:42.952Z,98548.36
2022-08-18T04:47:01.269Z,98547.05
2022-08-18T04:50:18.801Z,98554.53
2022-08-18T04:53:53.259Z,98547.30
2022-08-18T04:57:14.584Z,98551.59
2022-08-18T05:00:30.617Z,98556.33
2022-08-18T05:03:50.002Z,98559.34
2022-08-18T05:07:05.738Z,98555.13
2022-08-18T05:10:25.868Z,98555.20
2022-08-18T05:13:42.392Z,98547.35
2022-08-18T05:16:59.158Z,98549.23
2022-08-18T05:20:18.170Z,98548.19
2022-08-18T05:23:35.137Z,98550.14
2022-08-18T05:26:54.612Z,98558.28
2022-08-18T05:30:12.881Z,98557.05
2022-08-18T05:33:29.253Z,98553.69
2022-08-18T05:37:20.603Z,98552.22
2022-08-18T05:40:37.189Z,98554.23
2022-08-18T05:43:55.647Z,98562.44
2022-08-18T05:47:17.765Z,98564.45
2022-08-18T05:50:35.665Z,98569.16
2022-08-18T05:54:06.652Z,98576.03
2022-08-18T05:57:26.689Z,98565.19
2022-08-18T06:00:43.803Z,98569.70
2022-08-18T06:04:06.701Z,98569.34
2022-08-18T06:07:33.460Z,98578.09
2022-08-18T06:10:52.198Z,98568.79
2022-08-18T06:14:08.599Z,98569.13
2022-08-18T06:17:40.208Z,98574.07
2022-08-18T06:21:38.297Z,98573.37
2022-08-18T06:24:57.767Z,98572.96
2022-08-18T06:28:18.706Z,98573.58
2022-08-18T06:31:43.268Z,98578.25
2022-08-18T06:35:12.047Z,98574.55
2022-08-18T06:38:46.179Z,98581.11
2022-08-18T06:42:06.369Z,98580.43
2022-08-18T06:45:25.271Z,98587.24
2022-08-18T06:48:49.627Z,98597.27
2022-08-18T06:52:05.960Z,98591.05
2022-08-18T06:55:27.402Z,98598.92
2022-08-18T06:58:43.553Z,98596.50
2022-08-18T07:02:02.802Z,98605.20
2022-08-18T07:05:35.158Z,98611.69
2022-08-18T07:08:53.597Z,98607.66
2022-08-18T07:12:14.586Z,98611.42
2022-08-18T07:15:35.236Z,98612.23
2022-08-18T07:18:52.208Z,98618.16
2022-08-18T07:22:17.192Z,98627.88
2022-08-18T07:25:37.732Z,98605.00
2022-08-18T07:28:56.699Z,98617.39
2022-08-18T07:32:21.473Z,98612.38
2022-08-18T07:35:44.787Z,98616.05
2022-08-18T07:39:06.405Z,98627.56
2022-08-18T07:42:33.160Z,98620.05
2022-08-18T07:45:49.732Z,98626.47
2022-08-18T07:49:07.287Z,98624.38
2022-08-18T07:52:36.519Z,98623.67
2022-08-18T07:55:53.117Z,98605.81
2022-08-18T07:59:15.255Z,98613.98
2022-08-18T08:02:50.070Z,98608.32
2022-08-18T08:06:13.749Z,98610.88
2022-08-18T08:09:47.163Z,98611.28
2022-08-18T08:13:09.663Z,98617.44
2022-08-18T08:16:33.923Z,98621.65
2022-08-18T08:20:20.597Z,98607.23
2022-08-18T08:23:45.218Z,98611.43
2022-08-18T08:27:05.856Z,98616.49
2022-08-18T08:30:26.213Z,98618.42
2022-08-18T08:33:49.472Z,98607.58
2022-08-18T08:37:11.362Z,98608.25
2022-08-18T08:40:32.039Z,98616.59
2022-08-18T08:43:53.311Z,98609.54
2022-08-18T08:47:13.838Z,98608.42
2022-08-18T08:50:37.433Z,98611.52
2022-08-18T08:53:59.180Z,98614.97
2022-08-18T08:57:18.022Z,98625.41
2022-08-18T09:04:14.081Z,98635.85
2022-08-18T09:07:42.818Z,98643.29
2022-08-18T09:11:24.388Z,98632.91
2022-08-18T09:15:07.031Z,98641.30
2022-08-18T09:18:56.713Z,98632.79
2022-08-18T09:22:18.173Z,98646.48
2022-08-18T09:25:59.438Z,98644.86
2022-08-18T09:29:30.445Z,98637.88
2022-08-18T09:33:18.852Z,98644.84
2022-08-18T09:36:41.972Z,98639.05
2022-08-18T09:40:33.378Z,98641.45
2022-08-18T09:43:44.611Z,98642.38
2022-08-18T09:47:09.056Z,98639.45
2022-08-18T09:51:28.488Z,98641.13
2022-08-18T09:54:57.387Z,98642.75
2022-08-18T09:58:50.233Z,98634.37
2022-08-18T10:02:14.216Z,98632.45
2022-08-18T10:05:39.305Z,98642.27
2022-08-18T10:09:36.704Z,98639.05
2022-08-18T10:13:17.153Z,98631.34
2022-08-18T10:17:13.097Z,98639.84
2022-08-18T10:20:08.204Z,98643.86
2022-08-18T10:24:14.711Z,98641.61
2022-08-18T10:27:34.426Z,98632.91
2022-08-18T10:31:12.307Z,98621.97
2022-08-18T10:34:52.278Z,98620.23
2022-08-18T10:38:05.677Z,98616.83
2022-08-18T10:41:32.266Z,98612.64
2022-08-18T10:44:53.078Z,98609.44
2022-08-18T10:48:18.581Z,98606.46
2022-08-18T10:52:00.431Z,98591.41
2022-08-18T10:55:49.162Z,98591.23
2022-08-18T10:59:16.550Z,98593.73
2022-08-18T11:02:45.071Z,98571.19
2022-08-18T11:06:21.219Z,98575.17
2022-08-18T11:09:41.906Z,98580.49
2022-08-18T11:13:13.828Z,98578.20
2022-08-18T11:16:42.573Z,98580.05
2022-08-18T11:20:03.229Z,98568.63
2022-08-18T11:23:25.929Z,98577.37
2022-08-18T11:26:52.351Z,98572.94
2022-08-18T11:30:12.136Z,98567.63
2022-08-18T11:33:30.714Z,98566.59
2022-08-18T11:36:50.118Z,98553.58
2022-08-18T11:40:17.700Z,98549.64
2022-08-18T11:46:56.819Z,98541.05
2022-08-18T11:50:20.521Z,98524.30
2022-08-18T11:53:55.584Z,98536.17
2022-08-18T11:57:46.208Z,98525.88
2022-08-18T12:01:08.950Z,98533.76
2022-08-18T12:04:35.720Z,98520.06
2022-08-18T12:11:27.644Z,98513.74
2022-08-18T12:15:13.837Z,98516.28
2022-08-18T12:18:28.606Z,98501.19
2022-08-18T12:21:40.312Z,98501.61
2022-08-18T12:25:01.023Z,98493.23
2022-08-18T12:28:17.391Z,98498.69
2022-08-18T12:31:47.487Z,98479.05
2022-08-18T12:34:51.712Z,98474.33
2022-08-18T12:38:12.987Z,98467.95
2022-08-18T12:41:26.497Z,98474.71
2022-08-18T12:44:43.045Z,98469.54
2022-08-18T12:48:00.376Z,98465.70
2022-08-18T12:51:18.000Z,98467.58
2022-08-18T12:54:36.875Z,98461.62
2022-08-18T12:57:55.169Z,98460.50
2022-08-18T13:01:11.390Z,98455.75
2022-08-18T13:04:27.785Z,98464.09
2022-08-18T13:07:44.164Z,98473.83
2022-08-18T13:11:14.810Z,98457.78
2022-08-18T13:14:20.814Z,98453.75
2022-08-18T13:17:41.531Z,98454.92
2022-08-18T13:20:59.410Z,98460.88
2022-08-18T13:24:16.487Z,98473.22
2022-08-18T13:27:35.936Z,98463.93
2022-08-18T13:30:54.232Z,98457.14
2022-08-18T13:34:15.335Z,98456.86
2022-08-18T13:37:32.857Z,98468.05
2022-08-18T13:40:49.768Z,98465.64
2022-08-18T13:44:05.976Z,98471.92
2022-08-18T13:47:24.233Z,98471.61
2022-08-18T13:50:41.753Z,98467.89
2022-08-18T13:54:17.843Z,98476.08
2022-08-18T13:57:17.478Z,98478.30
2022-08-18T14:00:35.466Z,98483.25
2022-08-18T14:03:52.571Z,98480.23
2022-08-18T14:07:11.117Z,98479.41
2022-08-18T14:10:28.975Z,98480.02
2022-08-18T14:13:45.239Z,98490.09
2022-08-18T14:17:01.322Z,98479.82
2022-08-18T14:20:34.587Z,98485.56
2022-08-18T14:24:00.951Z,98490.73
2022-08-18T14:27:17.645Z,98489.11
2022-08-18T14:30:34.248Z,98485.09
2022-08-18T14:33:53.704Z,98481.05
2022-08-18T14:37:10.746Z,98473.67
2022-08-18T14:40:28.404Z,98479.44
2022-08-18T14:44:10.933Z,98477.50
2022-08-18T14:47:04.060Z,98474.49
2022-08-18T14:50:21.422Z,98463.87
2022-08-18T14:53:41.858Z,98454.09
2022-08-18T14:56:59.521Z,98452.96
2022-08-18T15:00:22.674Z,98455.88
2022-08-18T15:03:41.187Z,98455.09
2022-08-18T15:06:58.387Z,98454.89
2022-08-18T15:10:19.919Z,98458.06
2022-08-18T15:13:39.043Z,98445.03
2022-08-18T15:16:55.161Z,98450.48
2022-08-18T15:20:14.777Z,98458.47
2022-08-18T15:23:46.634Z,98465.03
2022-08-18T15:27:10.232Z,98452.54
2022-08-18T15:30:26.503Z,98454.13
2022-08-18T15:33:43.148Z,98450.09
2022-08-18T15:37:03.026Z,98443.66
2022-08-18T15:40:31.169Z,98447.17
2022-08-18T15:43:46.276Z,98445.59
2022-08-18T15:47:03.059Z,98441.53
2022-08-18T15:50:25.208Z,98450.66
2022-08-18T15:53:40.090Z,98443.90
2022-08-18T15:56:58.370Z,98444.19
2022-08-18T16:00:21.153Z,98448.84
2022-08-18T16:03:39.186Z,98447.53
2022-08-18T16:06:56.901Z,98449.75
2022-08-18T16:10:15.887Z,98452.48
2022-08-18T16:13:33.582Z,98448.45
2022-08-18T16:16:49.852Z,98437.35
2022-08-18T16:20:06.027Z,98444.22
2022-08-18T16:23:22.904Z,98445.05
2022-08-18T16:26:39.294Z,98442.92
2022-08-18T16:29:55.326Z,98429.89
2022-08-18T16:33:14.208Z,98432.42
2022-08-18T16:36:34.179Z,98431.11
2022-08-18T16:39:50.558Z,98427.37
2022-08-18T16:43:07.564Z,98424.95
2022-08-18T16:46:28.433Z,98422.34
2022-08-18T16:49:45.335Z,98422.97
2022-08-18T16:53:02.901Z,98422.25
2022-08-18T16:56:25.661Z,98418.54
2022-08-18T16:59:56.195Z,98426.20
2022-08-18T17:03:33.628Z,98436.89
2022-08-18T17:06:50.565Z,98434.27
2022-08-18T17:10:13.014Z,98423.97
2022-08-18T17:13:36.083Z,98416.42
2022-08-18T17:17:04.976Z,98418.42
2022-08-18T17:20:25.662Z,98409.57
2022-08-18T17:23:48.867Z,98408.27
2022-08-18T17:27:26.486Z,98411.84
2022-08-18T17:30:41.275Z,98409.55
2022-08-18T17:34:00.744Z,98416.19
2022-08-18T17:37:24.804Z,98409.02
2022-08-18T17:40:46.452Z,98407.80
2022-08-18T17:44:08.894Z,98414.45
2022-08-18T17:47:33.379Z,98415.92
2022-08-18T17:51:17.720Z,98416.84
2022-08-18T17:54:43.017Z,98423.47
2022-08-18T17:58:05.286Z,98426.03
2022-08-18T18:01:23.033Z,98421.48
2022-08-18T18:04:38.741Z,98422.66
2022-08-18T18:08:07.272Z,98439.06
2022-08-18T18:11:25.457Z,98441.34
2022-08-18T18:14:44.816Z,98444.14
2022-08-18T18:18:02.507Z,98448.26
2022-08-18T18:22:00.556Z,98449.05
2022-08-18T18:28:04.361Z,98462.95
2022-08-18T18:31:35.333Z,98460.38
2022-08-18T18:34:59.851Z,98463.41
2022-08-18T18:38:30.577Z,98457.86
2022-08-18T18:41:51.764Z,98462.42
2022-08-18T18:45:14.636Z,98455.02
2022-08-18T18:48:51.169Z,98464.27
2022-08-18T18:51:57.579Z,98463.63
2022-08-18T18:55:21.629Z,98452.48
2022-08-18T18:58:47.022Z,98458.38
2022-08-18T19:02:32.877Z,98449.94
2022-08-18T19:05:35.914Z,98451.03
2022-08-18T19:09:03.506Z,98451.89
2022-08-18T19:12:37.153Z,98445.43
2022-08-18T19:16:02.308Z,98445.19
2022-08-18T19:19:38.465Z,98438.70
2022-08-18T19:22:54.993Z,98427.38
2022-08-18T19:26:15.543Z,98425.86
2022-08-18T19:29:42.341Z,98426.27
2022-08-18T19:33:12.854Z,98423.27
2022-08-18T19:36:37.779Z,98413.08
2022-08-18T19:40:00.739Z,98407.70
2022-08-18T19:43:26.126Z,98390.16
2022-08-18T19:46:47.740Z,98387.52
2022-08-18T19:50:11.239Z,98389.44
2022-08-18T19:53:50.528Z,98377.58
2022-08-18T19:57:32.498Z,98364.41
2022-08-18T20:00:54.629Z,98371.50
2022-08-18T20:04:27.974Z,98380.22
2022-08-18T20:08:48.525Z,98367.80
2022-08-18T20:12:18.267Z,98370.55
2022-08-18T20:15:37.288Z,98360.80
2022-08-18T20:18:57.211Z,98362.50
2022-08-18T20:22:22.090Z,98365.21
2022-08-18T20:25:52.346Z,98353.88
2022-08-18T20:29:10.334Z,98364.48
2022-08-18T20:32:36.925Z,98355.29
2022-08-18T20:36:08.794Z,98354.55
2022-08-18T20:39:56.503Z,98354.08
2022-08-18T20:43:13.378Z,98358.14
2022-08-18T20:46:41.374Z,98353.58
2022-08-18T20:50:11.609Z,98358.20
2022-08-18T20:54:01.483Z,98352.01
2022-08-18T20:57:20.649Z,98355.81
2022-08-18T21:00:37.619Z,98362.59
2022-08-18T21:03:55.598Z,98369.63
2022-08-18T21:07:14.298Z,98363.95
2022-08-18T21:10:32.943Z,98371.78
2022-08-18T21:13:57.282Z,98372.33
2022-08-18T21:17:24.049Z,98366.91
2022-08-18T21:20:41.287Z,98363.41
2022-08-18T21:24:01.865Z,98364.77
2022-08-18T21:27:24.510Z,98359.09
2022-08-18T21:30:41.162Z,98348.03
2022-08-18T21:34:04.776Z,98352.11
2022-08-18T21:37:24.981Z,98337.79
2022-08-18T21:40:48.316Z,98347.52
2022-08-18T21:44:09.325Z,98341.85
2022-08-18T21:47:29.943Z,98344.03
2022-08-18T21:50:54.264Z,98345.11
2022-08-18T21:54:10.766Z,98345.11
2022-08-18T21:57:33.888Z,98348.34
2022-08-18T22:00:52.541Z,98346.73
2022-08-18T22:04:13.099Z,98345.66
2022-08-18T22:07:34.983Z,98350.23
2022-08-18T22:11:03.247Z,98356.68
2022-08-18T22:14:53.755Z,98359.66
2022-08-18T22:18:06.229Z,98366.41
2022-08-18T22:21:46.264Z,98364.51
2022-08-18T22:25:09.931Z,98352.63
2022-08-18T22:28:32.381Z,98354.78
2022-08-18T22:31:52.762Z,98357.75
2022-08-18T22:35:10.109Z,98356.92
2022-08-18T22:38:26.262Z,98352.87
2022-08-18T22:41:42.714Z,98362.87
2022-08-18T22:45:04.586Z,98360.45
2022-08-18T22:48:16.929Z,98358.81
2022-08-18T22:51:37.724Z,98352.06
2022-08-18T22:54:55.618Z,98356.63
2022-08-18T22:58:14.960Z,98360.96
2022-08-18T23:01:33.366Z,98359.09
2022-08-18T23:04:50.020Z,98353.69
2022-08-18T23:08:06.195Z,98353.94
2022-08-18T23:11:22.524Z,98337.73
2022-08-18T23:14:42.377Z,98335.83
2022-08-18T23:17:59.027Z,98338.00
2022-08-18T23:21:33.574Z,98347.72
2022-08-18T23:24:34.047Z,98349.03
2022-08-18T23:27:53.587Z,98347.67
2022-08-18T23:31:09.805Z,98343.34
2022-08-18T23:34:29.708Z,98342.55
2022-08-18T23:37:50.090Z,98340.41
2022-08-18T23:41:06.395Z,98352.80
2022-08-18T23:44:23.844Z,98342.81
2022-08-18T23:47:39.120Z,98340.58
2022-08-18T23:51:00.814Z,98336.78
2022-08-18T23:54:21.206Z,98342.94
2022-08-18T23:57:37.322Z,98332.36
